Time;durP1;ratioP1;P1;durP2;ratioP2;P2;SDS_P1;SDS_P2;PMS_P1;PMS_P2;Temp;Humidity;BMP_temperature;BMP_pressure;BME280_temperature;BME280_humidity;BME280_pressure;Samples;Min_cycle;Max_cycle;Signal;HPM_P1;HPM_P2
2023/07/16 00:02:04;;;;;;;2.80;2.28;;;;;;;;;;4973250;28;20524;-93
2023/07/16 00:04:31;;;;;;;3.28;2.30;;;;;;;;;;4972990;28;20527;-92
2023/07/16 00:07:00;;;;;;;2.85;1.90;;;;;;;;;;4971036;28;20042;-91
2023/07/16 00:09:30;;;;;;;3.67;2.38;;;;;;;;;;4984878;28;20035;-93
2023/07/16 00:11:59;;;;;;;3.55;2.30;;;;;;;;;;4967417;28;20134;-93
2023/07/16 00:14:27;;;;;;;3.22;2.08;;;;;;;;;;4974348;28;20055;-93
2023/07/16 00:16:56;;;;;;;3.80;2.25;;;;;;;;;;4962688;28;20054;-93
2023/07/16 00:19:27;;;;;;;5.68;2.75;;;;;;;;;;4951295;28;20057;-91
2023/07/16 00:21:55;;;;;;;5.57;2.83;;;;;;;;;;4963419;28;20500;-92
2023/07/16 00:24:22;;;;;;;5.60;2.70;;;;;;;;;;4957214;28;20604;-92
2023/07/16 00:26:50;;;;;;;3.80;1.92;;;;;;;;;;4954946;28;20508;-92
2023/07/16 00:29:17;;;;;;;3.45;2.08;;;;;;;;;;4991099;28;20397;-92
2023/07/16 00:31:47;;;;;;;4.05;3.08;;;;;;;;;;4976429;28;20050;-92
2023/07/16 00:34:14;;;;;;;3.47;2.20;;;;;;;;;;4958018;28;20054;-93
2023/07/16 00:36:43;;;;;;;2.83;2.13;;;;;;;;;;4980548;28;20054;-92
2023/07/16 00:39:10;;;;;;;1.67;1.58;;;;;;;;;;4949355;28;20448;-93
2023/07/16 00:41:40;;;;;;;2.15;1.77;;;;;;;;;;4974010;28;20046;-93
2023/07/16 00:44:08;;;;;;;1.83;1.65;;;;;;;;;;4954883;28;20531;-92
2023/07/16 00:46:36;;;;;;;1.80;1.63;;;;;;;;;;4963313;28;20061;-92
2023/07/16 00:49:04;;;;;;;2.88;2.17;;;;;;;;;;4989634;28;20051;-92
2023/07/16 00:51:34;;;;;;;3.05;2.30;;;;;;;;;;4959676;28;20038;-92
2023/07/16 00:54:03;;;;;;;3.13;2.50;;;;;;;;;;4957677;28;20615;-92
2023/07/16 00:56:33;;;;;;;2.00;1.65;;;;;;;;;;4965025;28;20357;-93
2023/07/16 00:59:00;;;;;;;1.88;1.40;;;;;;;;;;4955556;28;20047;-92
2023/07/16 01:01:27;;;;;;;4.05;2.08;;;;;;;;;;4969266;28;20058;-92
2023/07/16 01:03:55;;;;;;;2.45;2.20;;;;;;;;;;4982455;28;20054;-92
2023/07/16 01:06:26;;;;;;;3.35;1.60;;;;;;;;;;4976481;28;20042;-92
2023/07/16 01:08:58;;;;;;;3.40;2.10;;;;;;;;;;4969931;28;20053;-93
2023/07/16 01:11:28;;;;;;;3.28;1.70;;;;;;;;;;4974404;28;20046;-92
2023/07/16 01:13:58;;;;;;;2.35;2.15;;;;;;;;;;4957965;28;20046;-92
2023/07/16 01:16:26;;;;;;;2.80;2.10;;;;;;;;;;4970185;28;20047;-93
2023/07/16 01:18:57;;;;;;;1.98;1.67;;;;;;;;;;4969835;28;20062;-91
2023/07/16 01:21:25;;;;;;;3.10;1.83;;;;;;;;;;4965808;28;20042;-92
2023/07/16 01:24:02;;;;;;;2.53;1.80;;;;;;;;;;4957427;28;20054;-90
2023/07/16 01:26:46;;;;;;;1.45;1.30;;;;;;;;;;4950218;28;20051;-92
2023/07/16 01:29:29;;;;;;;3.00;1.70;;;;;;;;;;4967141;28;20058;-91
2023/07/16 01:31:57;;;;;;;3.17;1.90;;;;;;;;;;4972506;28;20073;-92
2023/07/16 01:34:26;;;;;;;3.70;1.60;;;;;;;;;;4979380;28;20055;-92
2023/07/16 01:36:53;;;;;;;2.85;2.03;;;;;;;;;;4950519;28;20046;-91
2023/07/16 01:39:20;;;;;;;2.42;1.83;;;;;;;;;;4961843;28;20054;-91
2023/07/16 01:41:50;;;;;;;2.50;1.70;;;;;;;;;;4963236;28;20414;-92
2023/07/16 01:44:20;;;;;;;3.22;1.63;;;;;;;;;;4970775;28;20047;-91
2023/07/16 01:47:00;;;;;;;2.33;1.90;;;;;;;;;;4961940;28;20419;-91
2023/07/16 01:49:27;;;;;;;2.60;1.65;;;;;;;;;;4965456;28;20046;-92
2023/07/16 01:51:57;;;;;;;2.00;1.70;;;;;;;;;;4947626;28;20050;-92
2023/07/16 01:54:27;;;;;;;6.90;1.98;;;;;;;;;;4977118;28;20051;-92
2023/07/16 01:56:54;;;;;;;3.47;2.05;;;;;;;;;;4961982;28;20053;-92
2023/07/16 01:59:22;;;;;;;3.97;1.75;;;;;;;;;;4974028;28;20057;-92
2023/07/16 02:01:51;;;;;;;2.35;2.15;;;;;;;;;;4950714;28;20101;-92
2023/07/16 02:04:21;;;;;;;3.20;2.22;;;;;;;;;;4960835;28;20046;-91
2023/07/16 02:07:16;;;;;;;4.15;1.20;;;;;;;;;;4962396;28;20042;-90
2023/07/16 02:09:49;;;;;;;2.25;1.85;;;;;;;;;;4947146;28;20054;-92
2023/07/16 02:12:17;;;;;;;3.05;1.55;;;;;;;;;;4955237;28;20050;-91
2023/07/16 02:14:44;;;;;;;3.90;1.67;;;;;;;;;;4948318;28;20054;-92
2023/07/16 02:17:24;;;;;;;5.22;1.50;;;;;;;;;;4985624;28;20055;-91
2023/07/16 02:20:12;;;;;;;2.25;1.70;;;;;;;;;;4977181;28;20058;-92
2023/07/16 02:22:42;;;;;;;1.48;1.13;;;;;;;;;;4945804;28;20047;-91
2023/07/16 02:25:10;;;;;;;4.22;1.92;;;;;;;;;;4979566;28;20508;-91
2023/07/16 02:27:40;;;;;;;2.03;1.65;;;;;;;;;;4958900;28;20047;-91
2023/07/16 02:30:08;;;;;;;4.38;2.10;;;;;;;;;;4968348;28;20059;-91
2023/07/16 02:32:37;;;;;;;2.33;1.48;;;;;;;;;;4944776;28;20064;-92
2023/07/16 02:35:05;;;;;;;2.08;1.25;;;;;;;;;;4944038;28;20055;-92
2023/07/16 02:37:32;;;;;;;2.95;1.70;;;;;;;;;;4964870;28;20042;-92
2023/07/16 02:40:00;;;;;;;4.85;1.60;;;;;;;;;;4956960;28;20058;-92
2023/07/16 02:42:30;;;;;;;5.72;1.70;;;;;;;;;;4962058;28;20530;-93
2023/07/16 02:45:00;;;;;;;1.88;1.33;;;;;;;;;;4972493;28;20515;-92
2023/07/16 02:47:32;;;;;;;2.83;1.30;;;;;;;;;;4958366;28;20062;-91
2023/07/16 02:50:02;;;;;;;1.92;1.40;;;;;;;;;;4963917;28;20305;-92
2023/07/16 02:52:30;;;;;;;2.10;1.35;;;;;;;;;;4964358;28;20039;-92
2023/07/16 02:55:00;;;;;;;3.33;1.50;;;;;;;;;;4959525;28;20069;-92
2023/07/16 02:57:27;;;;;;;3.47;1.63;;;;;;;;;;4973907;28;20074;-93
2023/07/16 02:59:55;;;;;;;2.03;1.67;;;;;;;;;;4956819;28;20059;-93
2023/07/16 03:02:22;;;;;;;1.77;1.27;;;;;;;;;;4951751;28;20062;-93
2023/07/16 03:04:50;;;;;;;4.63;1.67;;;;;;;;;;4950711;28;20051;-92
2023/07/16 03:07:19;;;;;;;7.68;2.50;;;;;;;;;;4958272;28;20058;-92
2023/07/16 03:09:47;;;;;;;4.93;2.08;;;;;;;;;;4973029;28;20058;-93
2023/07/16 03:12:17;;;;;;;3.30;1.52;;;;;;;;;;4973640;28;20027;-93
2023/07/16 03:14:44;;;;;;;2.13;1.52;;;;;;;;;;4970860;28;20062;-92
2023/07/16 03:17:12;;;;;;;2.42;1.50;;;;;;;;;;4967919;28;20057;-93
2023/07/16 03:19:40;;;;;;;1.92;1.35;;;;;;;;;;4968610;28;20054;-94
2023/07/16 03:22:07;;;;;;;7.45;2.30;;;;;;;;;;4976898;28;20057;-92
2023/07/16 03:24:36;;;;;;;3.65;2.47;;;;;;;;;;4975810;28;20050;-93
2023/07/16 03:27:06;;;;;;;3.42;1.63;;;;;;;;;;4961791;28;20046;-92
2023/07/16 03:29:34;;;;;;;3.88;1.70;;;;;;;;;;4959834;28;20058;-93
2023/07/16 03:32:03;;;;;;;6.18;1.50;;;;;;;;;;4996825;28;20042;-94
2023/07/16 03:34:35;;;;;;;3.05;1.90;;;;;;;;;;4971383;28;20044;-94
2023/07/16 03:37:03;;;;;;;1.98;1.73;;;;;;;;;;4991306;28;20546;-92
2023/07/16 03:39:31;;;;;;;3.38;1.90;;;;;;;;;;4980257;28;20054;-93
2023/07/16 03:41:59;;;;;;;3.38;1.40;;;;;;;;;;4982820;28;20042;-93
2023/07/16 03:44:30;;;;;;;3.33;1.95;;;;;;;;;;4986810;28;20043;-94
2023/07/16 03:46:59;;;;;;;2.03;1.38;;;;;;;;;;4969813;28;20051;-92
2023/07/16 03:49:30;;;;;;;2.92;1.20;;;;;;;;;;4979258;28;20048;-94
2023/07/16 03:52:00;;;;;;;2.53;1.30;;;;;;;;;;4986579;28;20050;-93
2023/07/16 03:54:30;;;;;;;2.35;1.27;;;;;;;;;;4993269;28;20061;-93
2023/07/16 03:57:01;;;;;;;1.85;1.48;;;;;;;;;;5002633;28;20372;-90
2023/07/16 03:59:31;;;;;;;3.83;1.80;;;;;;;;;;4993914;28;20030;-91
2023/07/16 04:02:01;;;;;;;2.00;1.45;;;;;;;;;;4968420;28;20050;-92
2023/07/16 04:04:29;;;;;;;5.65;1.50;;;;;;;;;;4999849;28;20057;-92
2023/07/16 04:06:59;;;;;;;2.50;1.95;;;;;;;;;;4993400;28;20042;-92
2023/07/16 04:09:26;;;;;;;2.45;1.55;;;;;;;;;;4985089;28;20050;-93
2023/07/16 04:11:53;;;;;;;2.70;1.75;;;;;;;;;;4999402;28;20039;-93
2023/07/16 04:14:22;;;;;;;2.05;1.42;;;;;;;;;;4990510;28;20050;-92
2023/07/16 04:16:52;;;;;;;2.63;2.20;;;;;;;;;;5001968;28;20055;-92
2023/07/16 04:19:20;;;;;;;2.92;1.77;;;;;;;;;;4989280;28;20061;-92
2023/07/16 04:21:47;;;;;;;5.68;2.40;;;;;;;;;;4999581;28;20070;-93
2023/07/16 04:24:18;;;;;;;3.78;1.95;;;;;;;;;;4998425;28;20041;-93
2023/07/16 04:26:45;;;;;;;4.00;2.00;;;;;;;;;;4995789;28;20050;-92
2023/07/16 04:29:13;;;;;;;3.88;2.60;;;;;;;;;;5000464;28;20332;-91
2023/07/16 04:31:42;;;;;;;4.07;2.08;;;;;;;;;;4996094;28;20050;-93
2023/07/16 04:34:11;;;;;;;6.55;1.80;;;;;;;;;;4993364;28;20051;-91
2023/07/16 04:36:39;;;;;;;2.28;1.58;;;;;;;;;;4988987;28;20046;-92
2023/07/16 04:39:09;;;;;;;4.35;2.00;;;;;;;;;;5007146;28;20042;-91
2023/07/16 04:41:39;;;;;;;2.05;1.80;;;;;;;;;;5004442;28;20080;-92
2023/07/16 04:44:07;;;;;;;3.92;1.58;;;;;;;;;;4981860;28;20109;-94
2023/07/16 04:46:36;;;;;;;5.60;1.67;;;;;;;;;;5003299;28;20042;-93
2023/07/16 04:49:06;;;;;;;1.75;1.00;;;;;;;;;;4962842;28;20062;-92
2023/07/16 04:51:33;;;;;;;2.17;1.73;;;;;;;;;;4992967;28;20038;-92
2023/07/16 04:54:01;;;;;;;3.78;2.03;;;;;;;;;;4994028;28;20190;-91
2023/07/16 04:56:30;;;;;;;7.55;1.75;;;;;;;;;;5002217;28;20045;-92
2023/07/16 04:59:00;;;;;;;1.45;1.35;;;;;;;;;;4989112;28;20026;-92
2023/07/16 05:01:27;;;;;;;4.00;1.52;;;;;;;;;;4985336;28;20033;-94
2023/07/16 05:03:56;;;;;;;2.08;1.42;;;;;;;;;;4996592;28;20031;-94
2023/07/16 05:06:25;;;;;;;3.08;1.55;;;;;;;;;;4974489;28;20045;-91
2023/07/16 05:08:52;;;;;;;4.70;1.77;;;;;;;;;;5000000;28;20031;-92
2023/07/16 05:11:25;;;;;;;3.53;1.60;;;;;;;;;;5007442;28;20250;-93
2023/07/16 05:13:55;;;;;;;4.75;1.67;;;;;;;;;;4985088;28;20055;-93
2023/07/16 05:16:25;;;;;;;3.42;1.70;;;;;;;;;;4997929;28;20949;-92
2023/07/16 05:18:52;;;;;;;1.70;1.25;;;;;;;;;;4998605;28;20035;-94
2023/07/16 05:21:21;;;;;;;3.28;1.27;;;;;;;;;;5002750;28;20051;-91
2023/07/16 05:23:50;;;;;;;2.45;1.63;;;;;;;;;;4988964;28;20039;-94
2023/07/16 05:26:17;;;;;;;2.85;1.33;;;;;;;;;;4997274;28;20046;-93
2023/07/16 05:28:44;;;;;;;2.28;1.30;;;;;;;;;;4985624;28;20057;-94
2023/07/16 05:31:12;;;;;;;7.10;1.50;;;;;;;;;;4998243;28;20046;-93
2023/07/16 05:33:40;;;;;;;4.25;1.30;;;;;;;;;;4979602;28;20051;-93
2023/07/16 05:36:07;;;;;;;4.00;1.30;;;;;;;;;;4996405;28;20061;-91
2023/07/16 05:38:35;;;;;;;5.65;1.88;;;;;;;;;;4998475;28;20046;-94
2023/07/16 05:41:04;;;;;;;2.90;1.45;;;;;;;;;;5013479;28;20037;-94
2023/07/16 05:43:32;;;;;;;3.75;1.30;;;;;;;;;;5003946;28;20065;-94
2023/07/16 05:46:00;;;;;;;4.30;1.75;;;;;;;;;;5011429;28;20046;-93
2023/07/16 05:48:27;;;;;;;3.38;1.52;;;;;;;;;;4999956;28;20065;-94
2023/07/16 05:50:55;;;;;;;4.00;1.75;;;;;;;;;;5010929;28;20042;-93
2023/07/16 05:53:22;;;;;;;2.63;1.75;;;;;;;;;;5006678;28;20050;-94
2023/07/16 05:55:51;;;;;;;3.45;1.05;;;;;;;;;;4982732;28;20058;-95
2023/07/16 05:58:20;;;;;;;3.20;1.65;;;;;;;;;;4992505;28;20057;-93
2023/07/16 06:00:48;;;;;;;5.30;1.75;;;;;;;;;;4979235;28;20415;-94
2023/07/16 06:03:16;;;;;;;4.70;1.67;;;;;;;;;;4998634;28;20034;-93
2023/07/16 06:05:47;;;;;;;4.75;1.92;;;;;;;;;;4989014;28;20035;-93
2023/07/16 06:08:20;;;;;;;6.85;1.60;;;;;;;;;;4987063;28;20034;-94
2023/07/16 06:10:47;;;;;;;4.43;1.33;;;;;;;;;;5010339;28;20035;-93
2023/07/16 06:13:15;;;;;;;3.28;1.75;;;;;;;;;;4989921;28;20026;-93
2023/07/16 06:15:44;;;;;;;2.70;1.83;;;;;;;;;;5005930;28;20043;-93
2023/07/16 06:18:11;;;;;;;2.45;1.10;;;;;;;;;;5004709;28;20045;-93
2023/07/16 06:20:45;;;;;;;3.42;1.40;;;;;;;;;;4984439;28;20037;-93
2023/07/16 06:23:12;;;;;;;3.92;1.45;;;;;;;;;;5002760;28;20537;-93
2023/07/16 06:25:44;;;;;;;3.50;1.20;;;;;;;;;;4994880;28;20023;-93
2023/07/16 06:28:17;;;;;;;3.40;1.48;;;;;;;;;;4988837;28;20029;-94
2023/07/16 06:30:49;;;;;;;2.00;1.20;;;;;;;;;;4998115;28;20033;-93
2023/07/16 06:33:16;;;;;;;1.92;1.63;;;;;;;;;;5010836;28;20041;-94
2023/07/16 06:35:48;;;;;;;7.25;1.77;;;;;;;;;;4989972;28;20042;-93
2023/07/16 06:38:19;;;;;;;2.88;1.48;;;;;;;;;;4983196;28;21261;-93
2023/07/16 06:40:54;;;;;;;10.48;3.25;;;;;;;;;;4974409;28;20030;-93
2023/07/16 06:43:24;;;;;;;5.25;1.80;;;;;;;;;;4989188;28;20050;-94
2023/07/16 06:45:52;;;;;;;3.05;1.60;;;;;;;;;;5004574;28;20047;-93
2023/07/16 06:48:24;;;;;;;2.42;1.13;;;;;;;;;;5000752;28;20034;-94
2023/07/16 06:50:51;;;;;;;3.67;2.00;;;;;;;;;;4987312;28;20045;-95
2023/07/16 06:53:19;;;;;;;4.03;1.55;;;;;;;;;;4994558;28;20537;-93
2023/07/16 06:55:48;;;;;;;2.42;1.50;;;;;;;;;;4986046;28;20061;-95
2023/07/16 06:58:23;;;;;;;3.63;1.70;;;;;;;;;;5006557;28;20046;-94
2023/07/16 07:01:08;;;;;;;2.58;1.52;;;;;;;;;;4989404;28;20044;-94
2023/07/16 07:03:38;;;;;;;5.50;2.28;;;;;;;;;;4991008;28;20036;-95
2023/07/16 07:06:10;;;;;;;4.05;2.03;;;;;;;;;;5008281;28;20046;-94
2023/07/16 07:08:42;;;;;;;2.17;1.50;;;;;;;;;;4980638;28;20041;-95
2023/07/16 07:11:11;;;;;;;2.72;2.13;;;;;;;;;;4992115;28;20030;-95
2023/07/16 07:13:43;;;;;;;1.75;1.35;;;;;;;;;;4988566;28;20035;-95
2023/07/16 07:16:15;;;;;;;4.45;1.45;;;;;;;;;;4968649;28;20038;-95
2023/07/16 07:18:46;;;;;;;3.08;1.65;;;;;;;;;;4989668;28;20046;-93
2023/07/16 07:21:13;;;;;;;3.40;1.67;;;;;;;;;;4985419;28;20052;-94
2023/07/16 07:23:41;;;;;;;1.67;1.27;;;;;;;;;;5007765;28;20039;-94
2023/07/16 07:26:15;;;;;;;6.22;2.45;;;;;;;;;;4998515;28;20045;-95
2023/07/16 07:28:45;;;;;;;3.45;1.90;;;;;;;;;;5004832;28;20026;-95
2023/07/16 07:31:17;;;;;;;2.00;1.80;;;;;;;;;;4999832;28;20046;-95
2023/07/16 07:33:45;;;;;;;2.35;1.60;;;;;;;;;;4996252;28;20049;-95
2023/07/16 07:36:13;;;;;;;3.05;1.92;;;;;;;;;;4983546;28;20062;-94
2023/07/16 07:38:44;;;;;;;3.22;1.70;;;;;;;;;;4979832;28;20041;-94
2023/07/16 07:41:17;;;;;;;4.45;1.65;;;;;;;;;;4968028;28;20050;-94
2023/07/16 07:43:50;;;;;;;3.33;2.22;;;;;;;;;;4983829;28;20047;-95
2023/07/16 07:46:22;;;;;;;2.50;1.77;;;;;;;;;;5001205;28;20037;-95
2023/07/16 07:48:52;;;;;;;5.95;2.33;;;;;;;;;;4989896;28;20051;-94
2023/07/16 07:51:24;;;;;;;2.97;2.40;;;;;;;;;;5002940;28;20571;-94
2023/07/16 07:53:52;;;;;;;8.57;2.08;;;;;;;;;;4973975;28;20053;-95
2023/07/16 07:56:20;;;;;;;2.78;2.40;;;;;;;;;;4978895;28;20057;-94
2023/07/16 07:58:50;;;;;;;3.25;2.13;;;;;;;;;;4981159;28;20046;-94
2023/07/16 08:01:22;;;;;;;2.42;1.58;;;;;;;;;;4993532;28;20066;-94
2023/07/16 08:03:49;;;;;;;7.68;2.78;;;;;;;;;;4996598;28;20043;-95
2023/07/16 08:06:19;;;;;;;3.90;2.00;;;;;;;;;;4976847;28;20054;-94
2023/07/16 08:08:46;;;;;;;5.35;2.88;;;;;;;;;;4981687;28;20030;-94
2023/07/16 08:11:17;;;;;;;3.63;2.00;;;;;;;;;;4995383;28;20030;-94
2023/07/16 08:13:49;;;;;;;5.63;2.08;;;;;;;;;;5002688;28;20051;-93
2023/07/16 08:16:16;;;;;;;3.42;2.25;;;;;;;;;;4997629;28;20038;-94
2023/07/16 08:18:45;;;;;;;3.00;1.75;;;;;;;;;;5003688;28;20031;-95
2023/07/16 08:21:19;;;;;;;5.85;2.20;;;;;;;;;;4974350;28;20043;-95
2023/07/16 08:24:02;;;;;;;2.70;1.50;;;;;;;;;;5001711;28;20036;-94
2023/07/16 08:26:32;;;;;;;6.53;2.22;;;;;;;;;;4993690;28;20053;-94
2023/07/16 08:29:10;;;;;;;5.00;2.30;;;;;;;;;;4987860;28;20053;-94
2023/07/16 08:31:41;;;;;;;5.80;2.67;;;;;;;;;;4975731;28;20050;-94
2023/07/16 08:34:12;;;;;;;2.72;1.88;;;;;;;;;;4991265;28;20048;-93
2023/07/16 08:36:45;;;;;;;2.28;1.70;;;;;;;;;;4987690;28;20057;-93
2023/07/16 08:39:19;;;;;;;3.38;2.00;;;;;;;;;;5000223;28;20022;-95
2023/07/16 08:41:56;;;;;;;3.45;1.92;;;;;;;;;;4993226;28;20058;-95
2023/07/16 08:44:24;;;;;;;3.90;1.90;;;;;;;;;;5008857;28;20053;-95
2023/07/16 08:46:55;;;;;;;5.80;2.33;;;;;;;;;;4991724;28;20035;-94
2023/07/16 08:49:24;;;;;;;3.03;1.42;;;;;;;;;;4985067;28;20530;-94
2023/07/16 08:51:55;;;;;;;17.35;2.60;;;;;;;;;;5001234;28;20030;-94
2023/07/16 08:54:25;;;;;;;5.93;2.50;;;;;;;;;;4989274;28;20038;-94
2023/07/16 08:56:53;;;;;;;3.25;1.40;;;;;;;;;;5004159;28;20037;-93
2023/07/16 08:59:21;;;;;;;3.15;1.75;;;;;;;;;;4981458;28;20061;-94
2023/07/16 09:01:55;;;;;;;4.05;2.22;;;;;;;;;;4977276;28;20042;-94
2023/07/16 09:04:24;;;;;;;4.40;2.45;;;;;;;;;;4976460;28;20034;-95
2023/07/16 09:06:52;;;;;;;3.05;1.50;;;;;;;;;;5007028;28;20035;-94
2023/07/16 09:09:23;;;;;;;4.82;1.90;;;;;;;;;;4986016;28;20068;-94
2023/07/16 09:11:51;;;;;;;3.37;1.93;;;;;;;;;;4980156;28;20053;-95
2023/07/16 09:14:19;;;;;;;4.05;1.63;;;;;;;;;;4976831;28;20047;-95
2023/07/16 09:16:50;;;;;;;7.68;2.38;;;;;;;;;;5003931;28;20058;-94
2023/07/16 09:19:19;;;;;;;3.15;1.45;;;;;;;;;;4971621;28;20054;-94
2023/07/16 09:21:49;;;;;;;3.67;1.90;;;;;;;;;;4995461;28;20050;-94
2023/07/16 09:24:16;;;;;;;3.03;1.67;;;;;;;;;;4986704;28;20055;-95
2023/07/16 09:26:54;;;;;;;4.53;2.00;;;;;;;;;;5000491;28;20065;-94
2023/07/16 09:29:24;;;;;;;3.35;1.50;;;;;;;;;;4997648;28;20034;-94
2023/07/16 09:31:56;;;;;;;6.72;2.17;;;;;;;;;;5010688;28;20023;-94
2023/07/16 09:34:24;;;;;;;4.87;2.27;;;;;;;;;;4994667;28;20054;-94
2023/07/16 09:36:53;;;;;;;3.05;1.83;;;;;;;;;;5007518;28;20274;-94
2023/07/16 09:39:25;;;;;;;5.43;2.67;;;;;;;;;;4993029;28;20042;-93
2023/07/16 09:41:57;;;;;;;9.00;1.98;;;;;;;;;;4993687;28;20046;-94
2023/07/16 09:44:31;;;;;;;6.85;2.15;;;;;;;;;;4966358;28;20054;-94
2023/07/16 09:46:59;;;;;;;3.17;1.73;;;;;;;;;;4983814;28;20047;-94
2023/07/16 09:49:29;;;;;;;5.30;1.65;;;;;;;;;;4975520;28;20058;-94
2023/07/16 09:51:59;;;;;;;3.42;1.80;;;;;;;;;;4997066;28;20035;-94
2023/07/16 09:54:29;;;;;;;2.85;2.20;;;;;;;;;;4958485;28;20058;-95
2023/07/16 09:56:59;;;;;;;1.70;1.30;;;;;;;;;;4992862;28;20042;-94
2023/07/16 09:59:28;;;;;;;3.05;1.70;;;;;;;;;;4996633;28;20026;-94
2023/07/16 10:01:56;;;;;;;4.90;1.73;;;;;;;;;;4970010;28;20061;-94
2023/07/16 10:04:26;;;;;;;2.85;1.52;;;;;;;;;;4960207;28;20061;-94
2023/07/16 10:06:56;;;;;;;4.53;1.55;;;;;;;;;;4984741;28;20454;-94
2023/07/16 10:09:40;;;;;;;4.47;1.70;;;;;;;;;;4984403;28;20054;-95
2023/07/16 10:12:12;;;;;;;3.05;2.05;;;;;;;;;;4976392;28;20062;-94
2023/07/16 10:14:49;;;;;;;3.75;2.35;;;;;;;;;;4981138;28;20050;-94
2023/07/16 10:17:25;;;;;;;5.95;2.10;;;;;;;;;;4975278;28;20055;-93
2023/07/16 10:19:59;;;;;;;3.75;1.40;;;;;;;;;;4979390;28;20046;-95
2023/07/16 10:22:41;;;;;;;1.77;1.52;;;;;;;;;;4995273;28;20393;-94
2023/07/16 10:25:12;;;;;;;2.58;1.83;;;;;;;;;;4996654;28;20054;-93
2023/07/16 10:27:42;;;;;;;4.55;2.13;;;;;;;;;;4983008;28;20046;-93
2023/07/16 10:30:17;;;;;;;3.63;1.52;;;;;;;;;;4999189;28;20058;-94
2023/07/16 10:35:36;;;;;;;2.25;1.77;;;;;;;;;;4982719;28;20037;-93
2023/07/16 10:38:03;;;;;;;2.60;1.50;;;;;;;;;;4996641;28;20030;-93
2023/07/16 10:40:46;;;;;;;5.88;1.85;;;;;;;;;;4984983;28;20050;-92
2023/07/16 10:43:19;;;;;;;3.72;1.80;;;;;;;;;;4985825;28;20058;-93
2023/07/16 10:45:54;;;;;;;2.50;1.23;;;;;;;;;;4988157;28;20054;-93
2023/07/16 10:48:26;;;;;;;5.00;1.40;;;;;;;;;;4975239;28;20298;-94
2023/07/16 10:51:01;;;;;;;5.30;1.97;;;;;;;;;;4977342;28;20047;-93
2023/07/16 10:53:31;;;;;;;2.97;1.58;;;;;;;;;;4999243;28;20056;-94
2023/07/16 10:56:03;;;;;;;2.15;1.75;;;;;;;;;;4970004;28;20047;-95
2023/07/16 10:58:33;;;;;;;5.10;1.80;;;;;;;;;;4997157;28;20054;-93
2023/07/16 11:01:14;;;;;;;3.72;1.90;;;;;;;;;;4973233;28;20065;-93
2023/07/16 11:03:56;;;;;;;7.93;2.13;;;;;;;;;;4980759;28;20147;-93
2023/07/16 11:06:46;;;;;;;2.33;1.60;;;;;;;;;;4975858;28;20048;-94
2023/07/16 11:09:17;;;;;;;2.95;1.55;;;;;;;;;;4968562;28;20044;-94
2023/07/16 11:11:46;;;;;;;3.80;1.30;;;;;;;;;;5008659;28;20034;-92
2023/07/16 11:14:17;;;;;;;4.63;1.88;;;;;;;;;;4974075;28;20042;-93
2023/07/16 11:16:48;;;;;;;3.20;1.45;;;;;;;;;;4983352;28;20053;-94
2023/07/16 11:19:21;;;;;;;2.28;1.63;;;;;;;;;;4975652;28;20046;-93
2023/07/16 11:21:58;;;;;;;9.80;1.70;;;;;;;;;;4986686;28;20045;-95
2023/07/16 11:24:29;;;;;;;3.50;1.77;;;;;;;;;;4989118;28;20214;-94
2023/07/16 11:27:01;;;;;;;3.42;1.58;;;;;;;;;;5005983;28;20038;-95
2023/07/16 11:29:47;;;;;;;2.42;1.27;;;;;;;;;;4982538;28;20048;-94
2023/07/16 11:32:34;;;;;;;4.28;1.85;;;;;;;;;;4977114;28;20035;-94
2023/07/16 11:35:03;;;;;;;5.68;1.98;;;;;;;;;;4980224;28;20061;-94
2023/07/16 11:37:33;;;;;;;2.50;1.30;;;;;;;;;;4970584;28;20042;-94
2023/07/16 11:40:04;;;;;;;4.82;1.83;;;;;;;;;;5256429;23;20062;-78
2023/07/16 11:42:37;;;;;;;3.55;1.75;;;;;;;;;;4959105;28;20452;-77
2023/07/16 11:45:06;;;;;;;3.92;1.83;;;;;;;;;;4960651;28;20047;-77
2023/07/16 11:47:41;;;;;;;7.65;1.92;;;;;;;;;;4954544;28;20038;-77
2023/07/16 11:50:09;;;;;;;4.75;1.55;;;;;;;;;;4946796;28;20055;-77
2023/07/16 11:52:39;;;;;;;2.80;1.70;;;;;;;;;;4961079;28;20047;-77
2023/07/16 12:14:40;;;;;;;2.83;2.00;;;;;;;;;;4950757;28;20499;-80
2023/07/16 12:17:10;;;;;;;7.60;2.10;;;;;;;;;;4992955;28;20049;-79
2023/07/16 12:19:40;;;;;;;2.28;1.67;;;;;;;;;;4980611;28;20061;-80
2023/07/16 12:22:07;;;;;;;1.45;1.20;;;;;;;;;;4968710;28;20050;-79
2023/07/16 12:24:34;;;;;;;4.45;1.52;;;;;;;;;;4973177;28;20058;-81
2023/07/16 12:27:04;;;;;;;4.68;2.00;;;;;;;;;;4985285;28;20051;-82
2023/07/16 12:29:31;;;;;;;6.70;1.80;;;;;;;;;;4982366;28;20047;-82
2023/07/16 12:32:00;;;;;;;2.40;1.50;;;;;;;;;;4980554;28;20055;-82
2023/07/16 12:34:30;;;;;;;3.88;1.52;;;;;;;;;;4968229;28;20061;-82
2023/07/16 12:36:57;;;;;;;4.47;2.30;;;;;;;;;;4976199;28;20050;-82
2023/07/16 12:39:27;;;;;;;3.42;1.40;;;;;;;;;;4949084;28;20052;-82
2023/07/16 12:41:56;;;;;;;4.28;1.90;;;;;;;;;;4968030;28;20047;-82
2023/07/16 12:44:24;;;;;;;3.35;1.55;;;;;;;;;;4973910;28;20125;-82
2023/07/16 12:46:51;;;;;;;2.85;2.03;;;;;;;;;;4955453;28;20048;-82
2023/07/16 12:49:20;;;;;;;1.95;1.40;;;;;;;;;;4951459;28;20501;-82
2023/07/16 12:51:50;;;;;;;1.88;1.65;;;;;;;;;;4965056;28;20416;-82
2023/07/16 12:54:19;;;;;;;4.03;1.58;;;;;;;;;;4945281;29;20047;-82
2023/07/16 12:56:46;;;;;;;3.42;2.00;;;;;;;;;;4946163;28;20050;-82
2023/07/16 12:59:14;;;;;;;1.88;1.67;;;;;;;;;;4974148;28;20051;-82
2023/07/16 13:01:41;;;;;;;2.92;1.88;;;;;;;;;;4976284;28;20115;-82
2023/07/16 13:04:08;;;;;;;2.78;1.85;;;;;;;;;;4982328;28;20054;-82
2023/07/16 13:06:37;;;;;;;4.57;2.47;;;;;;;;;;4982297;28;20046;-82
2023/07/16 13:09:05;;;;;;;2.42;2.05;;;;;;;;;;4949245;28;20051;-82
2023/07/16 13:11:34;;;;;;;2.03;1.40;;;;;;;;;;4986795;28;20054;-82
2023/07/16 13:14:01;;;;;;;3.17;1.70;;;;;;;;;;4950630;28;20065;-82
2023/07/16 13:16:31;;;;;;;3.28;1.98;;;;;;;;;;4966362;28;20604;-82
2023/07/16 13:19:02;;;;;;;3.22;1.75;;;;;;;;;;4983148;28;20047;-82
2023/07/16 13:21:30;;;;;;;2.28;1.67;;;;;;;;;;4987869;28;20043;-82
2023/07/16 13:23:59;;;;;;;8.75;1.88;;;;;;;;;;4965452;28;20058;-82
2023/07/16 13:26:26;;;;;;;2.67;1.92;;;;;;;;;;4951759;29;20054;-82
2023/07/16 13:28:54;;;;;;;5.18;2.53;;;;;;;;;;4978763;28;20077;-82
2023/07/16 13:31:24;;;;;;;5.53;1.95;;;;;;;;;;4961399;28;20062;-82
2023/07/16 13:33:51;;;;;;;2.13;1.40;;;;;;;;;;4975108;28;20144;-82
2023/07/16 13:36:18;;;;;;;3.28;1.58;;;;;;;;;;4944884;28;20043;-82
2023/07/16 13:38:53;;;;;;;5.13;1.58;;;;;;;;;;4963427;28;20047;-82
2023/07/16 13:41:24;;;;;;;3.22;1.90;;;;;;;;;;4965752;28;20065;-82
2023/07/16 13:43:54;;;;;;;3.53;1.55;;;;;;;;;;4965038;28;20058;-82
2023/07/16 13:46:23;;;;;;;2.30;1.55;;;;;;;;;;4964636;28;20067;-82
2023/07/16 13:48:50;;;;;;;4.65;2.25;;;;;;;;;;4964519;28;20058;-81
2023/07/16 13:51:18;;;;;;;5.57;2.22;;;;;;;;;;4962837;28;20043;-82
2023/07/16 13:53:45;;;;;;;3.53;2.47;;;;;;;;;;4960501;28;20065;-82
2023/07/16 13:56:12;;;;;;;2.13;1.55;;;;;;;;;;4963400;28;20047;-81
2023/07/16 13:58:41;;;;;;;2.78;1.90;;;;;;;;;;4959324;28;20062;-82
2023/07/16 14:01:08;;;;;;;3.58;1.83;;;;;;;;;;4948688;28;20169;-82
2023/07/16 14:03:35;;;;;;;2.22;1.40;;;;;;;;;;4987218;28;20046;-82
2023/07/16 14:06:05;;;;;;;3.83;2.75;;;;;;;;;;4963544;28;20046;-82
2023/07/16 14:08:35;;;;;;;2.97;1.90;;;;;;;;;;4964785;28;20059;-82
2023/07/16 14:11:05;;;;;;;3.85;2.08;;;;;;;;;;4986716;28;20062;-82
2023/07/16 14:13:32;;;;;;;2.97;1.80;;;;;;;;;;4964508;28;20046;-82
2023/07/16 14:16:03;;;;;;;15.77;2.53;;;;;;;;;;4962106;28;20043;-82
2023/07/16 14:18:31;;;;;;;3.08;2.10;;;;;;;;;;4980382;28;20051;-82
2023/07/16 14:20:58;;;;;;;4.22;2.28;;;;;;;;;;4947566;28;20421;-82
2023/07/16 14:23:28;;;;;;;2.33;2.00;;;;;;;;;;4964795;28;20527;-82
2023/07/16 14:25:55;;;;;;;5.53;2.30;;;;;;;;;;4951880;28;20054;-82
2023/07/16 14:28:24;;;;;;;10.18;2.30;;;;;;;;;;4975145;28;20050;-82
2023/07/16 14:30:52;;;;;;;3.10;2.03;;;;;;;;;;4988429;28;20043;-82
2023/07/16 14:33:23;;;;;;;6.85;1.98;;;;;;;;;;4951561;28;20400;-82
2023/07/16 14:35:50;;;;;;;4.63;2.30;;;;;;;;;;4982414;28;20057;-82
2023/07/16 14:38:20;;;;;;;3.92;2.50;;;;;;;;;;4947001;28;20524;-82
2023/07/16 14:40:50;;;;;;;4.53;2.10;;;;;;;;;;4988721;28;20070;-82
2023/07/16 14:43:19;;;;;;;2.65;1.50;;;;;;;;;;4986769;28;20062;-82
2023/07/16 14:45:47;;;;;;;4.70;2.25;;;;;;;;;;4990516;28;20093;-82
2023/07/16 14:48:14;;;;;;;2.65;2.35;;;;;;;;;;4951476;28;20047;-82
2023/07/16 15:08:48;;;;;;;3.97;2.55;;;;;;;;;;5122301;23;20054;-80
2023/07/16 15:11:15;;;;;;;3.38;1.75;;;;;;;;;;4951331;28;20057;-79
2023/07/16 15:13:42;;;;;;;3.35;1.92;;;;;;;;;;4978732;28;20392;-79
2023/07/16 15:16:17;;;;;;;3.40;1.90;;;;;;;;;;4976972;28;20047;-79
2023/07/16 15:18:45;;;;;;;4.10;2.45;;;;;;;;;;4977831;28;20062;-79
2023/07/16 15:21:12;;;;;;;2.55;2.30;;;;;;;;;;4952316;23;20054;-77
2023/07/16 15:23:45;;;;;;;3.45;1.92;;;;;;;;;;4982019;28;20404;-76
2023/07/16 15:26:14;;;;;;;3.63;2.05;;;;;;;;;;4974199;28;20062;-77
2023/07/16 15:28:45;;;;;;;3.72;1.98;;;;;;;;;;4935358;28;20053;-77
2023/07/16 15:31:14;;;;;;;1.95;1.45;;;;;;;;;;4974076;28;20049;-76
2023/07/16 15:33:42;;;;;;;3.15;2.25;;;;;;;;;;4968576;28;20053;-76
2023/07/16 15:36:09;;;;;;;3.92;2.00;;;;;;;;;;4973737;28;20049;-76
2023/07/16 15:38:38;;;;;;;2.00;1.73;;;;;;;;;;4948166;28;20046;-76
2023/07/16 15:41:06;;;;;;;2.67;1.98;;;;;;;;;;4936762;28;20062;-78